sensor_id;sensor_type;location;lat;lon;timestamp;pressure;altitude;pressure_sealevel;temperature;humidity
48874;BME280;66155;46.204;5.220;2023-07-20T00:02:05;98719.69;;;22.76;48.64
48874;BME280;66155;46.204;5.220;2023-07-20T00:07:07;98712.25;;;22.69;48.51
48874;BME280;66155;46.204;5.220;2023-07-20T00:12:08;98717.25;;;22.71;48.64
48874;BME280;66155;46.204;5.220;2023-07-20T00:17:08;98713.09;;;22.61;48.90
48874;BME280;66155;46.204;5.220;2023-07-20T00:22:08;98715.69;;;22.49;49.19
48874;BME280;66155;46.204;5.220;2023-07-20T00:27:09;98712.00;;;22.62;48.93
48874;BME280;66155;46.204;5.220;2023-07-20T00:32:09;98714.28;;;22.51;49.16
48874;BME280;66155;46.204;5.220;2023-07-20T00:37:10;98714.22;;;22.39;49.67
48874;BME280;66155;46.204;5.220;2023-07-20T00:42:10;98717.75;;;22.43;49.52
48874;BME280;66155;46.204;5.220;2023-07-20T00:47:11;98711.50;;;22.27;50.08
48874;BME280;66155;46.204;5.220;2023-07-20T00:52:13;98707.34;;;22.08;50.73
48874;BME280;66155;46.204;5.220;2023-07-20T00:57:15;98699.34;;;21.96;51.27
48874;BME280;66155;46.204;5.220;2023-07-20T01:02:16;98697.38;;;21.84;51.51
48874;BME280;66155;46.204;5.220;2023-07-20T01:07:31;98708.16;;;21.79;52.48
48874;BME280;66155;46.204;5.220;2023-07-20T01:12:40;98693.56;;;21.64;52.81
48874;BME280;66155;46.204;5.220;2023-07-20T01:17:41;98693.31;;;21.57;52.48
48874;BME280;66155;46.204;5.220;2023-07-20T01:28:32;98702.81;;;21.49;53.51
48874;BME280;66155;46.204;5.220;2023-07-20T01:33:35;98685.06;;;21.41;52.63
48874;BME280;66155;46.204;5.220;2023-07-20T01:38:37;98683.34;;;21.45;52.68
48874;BME280;66155;46.204;5.220;2023-07-20T01:43:38;98670.88;;;21.45;52.53
48874;BME280;66155;46.204;5.220;2023-07-20T01:48:38;98671.94;;;21.53;52.70
48874;BME280;66155;46.204;5.220;2023-07-20T01:53:38;98667.34;;;21.71;52.46
48874;BME280;66155;46.204;5.220;2023-07-20T01:58:39;98657.19;;;21.73;52.33
48874;BME280;66155;46.204;5.220;2023-07-20T02:03:39;98660.97;;;21.63;52.67
48874;BME280;66155;46.204;5.220;2023-07-20T02:08:40;98664.94;;;21.49;53.09
48874;BME280;66155;46.204;5.220;2023-07-20T02:13:40;98662.94;;;21.37;53.40
48874;BME280;66155;46.204;5.220;2023-07-20T02:18:41;98663.50;;;21.13;54.17
48874;BME280;66155;46.204;5.220;2023-07-20T02:23:41;98665.88;;;20.97;54.47
48874;BME280;66155;46.204;5.220;2023-07-20T02:28:42;98673.84;;;20.88;54.71
48874;BME280;66155;46.204;5.220;2023-07-20T02:33:42;98672.94;;;20.84;54.79
48874;BME280;66155;46.204;5.220;2023-07-20T02:38:42;98671.50;;;20.95;54.41
48874;BME280;66155;46.204;5.220;2023-07-20T02:43:43;98674.88;;;21.13;54.12
48874;BME280;66155;46.204;5.220;2023-07-20T02:48:43;98675.75;;;21.26;53.78
48874;BME280;66155;46.204;5.220;2023-07-20T02:53:44;98665.56;;;21.45;53.49
48874;BME280;66155;46.204;5.220;2023-07-20T02:58:44;98669.44;;;21.57;53.61
48874;BME280;66155;46.204;5.220;2023-07-20T03:03:45;98660.81;;;21.60;53.61
48874;BME280;66155;46.204;5.220;2023-07-20T03:08:46;98656.88;;;21.75;53.16
48874;BME280;66155;46.204;5.220;2023-07-20T03:13:53;98665.47;;;21.72;53.39
48874;BME280;66155;46.204;5.220;2023-07-20T03:18:54;98658.56;;;21.50;54.00
48874;BME280;66155;46.204;5.220;2023-07-20T03:23:54;98663.25;;;21.35;54.25
48874;BME280;66155;46.204;5.220;2023-07-20T03:28:55;98659.81;;;21.35;54.15
48874;BME280;66155;46.204;5.220;2023-07-20T03:33:55;98666.97;;;21.52;53.76
48874;BME280;66155;46.204;5.220;2023-07-20T03:38:56;98664.22;;;21.69;53.52
48874;BME280;66155;46.204;5.220;2023-07-20T03:43:56;98657.00;;;21.78;53.24
48874;BME280;66155;46.204;5.220;2023-07-20T03:48:57;98658.81;;;21.87;53.12
48874;BME280;66155;46.204;5.220;2023-07-20T03:53:57;98659.34;;;22.01;53.00
48874;BME280;66155;46.204;5.220;2023-07-20T03:58:58;98658.97;;;22.11;52.61
48874;BME280;66155;46.204;5.220;2023-07-20T04:03:58;98659.19;;;22.27;52.75
48874;BME280;66155;46.204;5.220;2023-07-20T04:08:59;98664.34;;;22.45;52.28
48874;BME280;66155;46.204;5.220;2023-07-20T04:13:59;98666.94;;;22.53;51.88
48874;BME280;66155;46.204;5.220;2023-07-20T04:18:59;98663.31;;;22.58;51.95
48874;BME280;66155;46.204;5.220;2023-07-20T04:24:00;98669.31;;;22.67;51.93
48874;BME280;66155;46.204;5.220;2023-07-20T04:29:00;98662.69;;;22.73;51.50
48874;BME280;66155;46.204;5.220;2023-07-20T04:34:01;98661.19;;;22.85;51.31
48874;BME280;66155;46.204;5.220;2023-07-20T04:39:02;98667.06;;;22.90;51.31
48874;BME280;66155;46.204;5.220;2023-07-20T04:44:03;98673.56;;;22.93;51.01
48874;BME280;66155;46.204;5.220;2023-07-20T04:49:04;98674.94;;;22.99;51.12
48874;BME280;66155;46.204;5.220;2023-07-20T04:54:04;98670.00;;;23.10;50.98
48874;BME280;66155;46.204;5.220;2023-07-20T04:59:05;98662.78;;;23.10;50.75
48874;BME280;66155;46.204;5.220;2023-07-20T05:04:05;98664.69;;;23.10;50.77
48874;BME280;66155;46.204;5.220;2023-07-20T05:09:06;98670.88;;;23.14;50.29
48874;BME280;66155;46.204;5.220;2023-07-20T05:14:07;98665.91;;;23.12;50.15
48874;BME280;66155;46.204;5.220;2023-07-20T05:19:08;98664.00;;;23.13;50.45
48874;BME280;66155;46.204;5.220;2023-07-20T05:24:08;98658.91;;;23.20;50.05
48874;BME280;66155;46.204;5.220;2023-07-20T05:29:09;98655.38;;;23.16;50.25
48874;BME280;66155;46.204;5.220;2023-07-20T05:34:09;98658.69;;;23.13;50.15
48874;BME280;66155;46.204;5.220;2023-07-20T05:39:09;98663.88;;;23.09;50.17
48874;BME280;66155;46.204;5.220;2023-07-20T05:44:10;98658.56;;;23.09;50.00
48874;BME280;66155;46.204;5.220;2023-07-20T05:49:10;98654.72;;;23.07;50.08
48874;BME280;66155;46.204;5.220;2023-07-20T05:54:11;98648.03;;;23.01;49.95
48874;BME280;66155;46.204;5.220;2023-07-20T05:59:11;98646.75;;;23.07;49.88
48874;BME280;66155;46.204;5.220;2023-07-20T06:04:12;98648.47;;;23.03;49.86
48874;BME280;66155;46.204;5.220;2023-07-20T06:09:12;98642.94;;;22.95;49.86
48874;BME280;66155;46.204;5.220;2023-07-20T06:14:13;98644.22;;;22.77;49.88
48874;BME280;66155;46.204;5.220;2023-07-20T06:19:13;98651.94;;;22.70;49.91
48874;BME280;66155;46.204;5.220;2023-07-20T06:24:14;98647.94;;;22.64;50.05
48874;BME280;66155;46.204;5.220;2023-07-20T06:29:14;98638.66;;;22.70;50.17
48874;BME280;66155;46.204;5.220;2023-07-20T06:34:15;98633.78;;;22.72;50.22
48874;BME280;66155;46.204;5.220;2023-07-20T06:39:15;98637.25;;;22.72;50.16
48874;BME280;66155;46.204;5.220;2023-07-20T06:44:16;98638.00;;;22.73;50.21
48874;BME280;66155;46.204;5.220;2023-07-20T06:49:27;98644.09;;;22.73;50.24
48874;BME280;66155;46.204;5.220;2023-07-20T06:54:27;98644.88;;;22.86;50.37
48874;BME280;66155;46.204;5.220;2023-07-20T06:59:33;98643.69;;;22.84;50.50
48874;BME280;66155;46.204;5.220;2023-07-20T07:04:36;98627.28;;;22.82;50.85
48874;BME280;66155;46.204;5.220;2023-07-20T07:09:40;98641.38;;;22.94;50.74
48874;BME280;66155;46.204;5.220;2023-07-20T07:14:41;98643.81;;;23.00;50.83
48874;BME280;66155;46.204;5.220;2023-07-20T07:19:41;98641.75;;;23.05;50.64
48874;BME280;66155;46.204;5.220;2023-07-20T07:24:44;98628.75;;;23.04;50.62
48874;BME280;66155;46.204;5.220;2023-07-20T07:29:45;98642.75;;;23.13;50.56
48874;BME280;66155;46.204;5.220;2023-07-20T07:34:46;98644.41;;;23.18;50.26
48874;BME280;66155;46.204;5.220;2023-07-20T07:39:48;98638.66;;;23.15;49.79
48874;BME280;66155;46.204;5.220;2023-07-20T07:44:48;98638.25;;;23.26;49.97
48874;BME280;66155;46.204;5.220;2023-07-20T07:49:49;98631.69;;;23.35;49.85
48874;BME280;66155;46.204;5.220;2023-07-20T07:54:52;98636.25;;;23.35;49.48
48874;BME280;66155;46.204;5.220;2023-07-20T07:59:53;98624.38;;;23.32;49.80
48874;BME280;66155;46.204;5.220;2023-07-20T08:04:54;98623.38;;;23.37;49.21
48874;BME280;66155;46.204;5.220;2023-07-20T08:09:55;98613.41;;;23.46;48.64
48874;BME280;66155;46.204;5.220;2023-07-20T08:14:55;98603.31;;;23.52;48.56
48874;BME280;66155;46.204;5.220;2023-07-20T08:19:56;98605.31;;;23.55;47.88
48874;BME280;66155;46.204;5.220;2023-07-20T08:24:56;98607.94;;;23.67;47.34
48874;BME280;66155;46.204;5.220;2023-07-20T08:29:57;98605.16;;;23.76;47.00
48874;BME280;66155;46.204;5.220;2023-07-20T08:35:00;98608.81;;;23.84;46.45
48874;BME280;66155;46.204;5.220;2023-07-20T08:40:01;98596.75;;;23.86;46.09
48874;BME280;66155;46.204;5.220;2023-07-20T08:45:09;98603.41;;;23.80;45.99
48874;BME280;66155;46.204;5.220;2023-07-20T08:50:09;98604.50;;;23.91;45.79
48874;BME280;66155;46.204;5.220;2023-07-20T08:55:12;98612.09;;;24.05;45.44
48874;BME280;66155;46.204;5.220;2023-07-20T09:00:13;98602.56;;;24.04;44.88
48874;BME280;66155;46.204;5.220;2023-07-20T09:05:14;98611.00;;;24.06;44.49
48874;BME280;66155;46.204;5.220;2023-07-20T09:10:14;98605.66;;;24.06;44.05
48874;BME280;66155;46.204;5.220;2023-07-20T09:15:15;98588.94;;;24.06;43.87
48874;BME280;66155;46.204;5.220;2023-07-20T09:20:17;98576.41;;;24.06;43.46
48874;BME280;66155;46.204;5.220;2023-07-20T09:25:19;98570.25;;;24.18;43.46
48874;BME280;66155;46.204;5.220;2023-07-20T09:30:25;98575.88;;;24.29;42.65
48874;BME280;66155;46.204;5.220;2023-07-20T09:35:25;98567.69;;;24.22;42.64
48874;BME280;66155;46.204;5.220;2023-07-20T09:40:27;98566.75;;;24.30;42.83
48874;BME280;66155;46.204;5.220;2023-07-20T09:45:33;98558.50;;;24.35;42.46
48874;BME280;66155;46.204;5.220;2023-07-20T09:50:39;98557.16;;;24.41;42.56
48874;BME280;66155;46.204;5.220;2023-07-20T09:55:41;98548.03;;;24.42;42.47
48874;BME280;66155;46.204;5.220;2023-07-20T10:00:46;98546.56;;;24.57;42.24
48874;BME280;66155;46.204;5.220;2023-07-20T10:06:01;98542.25;;;24.69;41.70
48874;BME280;66155;46.204;5.220;2023-07-20T10:11:03;98543.19;;;24.76;41.84
48874;BME280;66155;46.204;5.220;2023-07-20T10:16:11;98535.66;;;24.78;40.68
48874;BME280;66155;46.204;5.220;2023-07-20T10:21:11;98537.88;;;24.76;40.54
48874;BME280;66155;46.204;5.220;2023-07-20T10:26:13;98535.53;;;24.75;41.37
48874;BME280;66155;46.204;5.220;2023-07-20T10:31:15;98517.09;;;24.82;41.12
48874;BME280;66155;46.204;5.220;2023-07-20T10:36:16;98523.75;;;24.92;41.33
48874;BME280;66155;46.204;5.220;2023-07-20T10:41:20;98525.47;;;25.00;40.77
48874;BME280;66155;46.204;5.220;2023-07-20T10:51:42;98515.81;;;25.11;40.54
48874;BME280;66155;46.204;5.220;2023-07-20T10:56:45;98508.50;;;25.08;40.73
48874;BME280;66155;46.204;5.220;2023-07-20T11:01:48;98497.81;;;25.24;40.50
48874;BME280;66155;46.204;5.220;2023-07-20T11:06:57;98490.94;;;25.23;39.92
48874;BME280;66155;46.204;5.220;2023-07-20T11:12:09;98481.22;;;25.31;39.89
48874;BME280;66155;46.204;5.220;2023-07-20T11:17:11;98490.94;;;25.39;40.07
48874;BME280;66155;46.204;5.220;2023-07-20T11:22:16;98487.53;;;25.42;39.42
48874;BME280;66155;46.204;5.220;2023-07-20T11:27:17;98476.25;;;25.49;39.86
48874;BME280;66155;46.204;5.220;2023-07-20T11:32:23;98483.84;;;25.47;38.77
48874;BME280;66155;46.204;5.220;2023-07-20T11:37:23;98467.06;;;25.46;39.15
48874;BME280;66155;46.204;5.220;2023-07-20T11:42:24;98455.75;;;25.53;38.79
48874;BME280;66155;46.204;5.220;2023-07-20T11:47:29;98446.00;;;25.60;38.71
48874;BME280;66155;46.204;5.220;2023-07-20T11:52:30;98442.03;;;25.74;38.71
48874;BME280;66155;46.204;5.220;2023-07-20T11:57:30;98438.09;;;25.87;38.16
48874;BME280;66155;46.204;5.220;2023-07-20T12:02:32;98439.84;;;25.99;37.66
48874;BME280;66155;46.204;5.220;2023-07-20T12:07:35;98441.47;;;26.04;37.56
48874;BME280;66155;46.204;5.220;2023-07-20T12:12:40;98432.88;;;26.14;37.94
48874;BME280;66155;46.204;5.220;2023-07-20T12:17:44;98433.75;;;26.22;37.79
48874;BME280;66155;46.204;5.220;2023-07-20T12:22:45;98434.66;;;26.29;37.28
48874;BME280;66155;46.204;5.220;2023-07-20T12:27:45;98429.81;;;26.39;37.46
48874;BME280;66155;46.204;5.220;2023-07-20T12:32:47;98419.59;;;26.44;37.02
48874;BME280;66155;46.204;5.220;2023-07-20T12:37:47;98437.34;;;26.56;36.59
48874;BME280;66155;46.204;5.220;2023-07-20T12:42:49;98422.38;;;26.51;36.17
48874;BME280;66155;46.204;5.220;2023-07-20T12:47:50;98424.28;;;26.51;35.62
48874;BME280;66155;46.204;5.220;2023-07-20T12:52:50;98400.88;;;26.67;35.53
48874;BME280;66155;46.204;5.220;2023-07-20T12:57:51;98403.44;;;26.87;35.41
48874;BME280;66155;46.204;5.220;2023-07-20T13:02:51;98398.84;;;27.18;34.97
48874;BME280;66155;46.204;5.220;2023-07-20T13:07:52;98392.53;;;27.29;35.09
48874;BME280;66155;46.204;5.220;2023-07-20T13:12:53;98386.38;;;27.63;34.79
48874;BME280;66155;46.204;5.220;2023-07-20T13:17:53;98397.66;;;27.86;33.89
48874;BME280;66155;46.204;5.220;2023-07-20T13:22:53;98372.91;;;27.93;33.41
48874;BME280;66155;46.204;5.220;2023-07-20T13:27:54;98370.38;;;28.11;32.94
48874;BME280;66155;46.204;5.220;2023-07-20T13:32:55;98375.09;;;28.32;33.20
48874;BME280;66155;46.204;5.220;2023-07-20T13:37:55;98356.44;;;28.47;33.06
48874;BME280;66155;46.204;5.220;2023-07-20T13:42:56;98355.81;;;28.64;33.13
48874;BME280;66155;46.204;5.220;2023-07-20T13:47:56;98355.88;;;28.78;32.59
48874;BME280;66155;46.204;5.220;2023-07-20T13:52:57;98339.09;;;28.99;32.57
48874;BME280;66155;46.204;5.220;2023-07-20T13:57:57;98347.59;;;29.16;31.74
48874;BME280;66155;46.204;5.220;2023-07-20T14:02:58;98329.22;;;29.25;31.57
48874;BME280;66155;46.204;5.220;2023-07-20T14:07:58;98328.50;;;29.46;31.05
48874;BME280;66155;46.204;5.220;2023-07-20T14:12:59;98322.75;;;29.58;30.59
48874;BME280;66155;46.204;5.220;2023-07-20T14:17:59;98319.69;;;29.74;30.16
48874;BME280;66155;46.204;5.220;2023-07-20T14:22:59;98316.28;;;29.88;29.97
48874;BME280;66155;46.204;5.220;2023-07-20T14:28:00;98305.91;;;30.01;29.35
48874;BME280;66155;46.204;5.220;2023-07-20T14:33:00;98311.66;;;30.03;28.80
48874;BME280;66155;46.204;5.220;2023-07-20T14:38:01;98303.19;;;30.05;27.81
48874;BME280;66155;46.204;5.220;2023-07-20T14:43:01;98295.47;;;30.25;28.32
48874;BME280;66155;46.204;5.220;2023-07-20T14:48:02;98282.78;;;30.43;28.64
48874;BME280;66155;46.204;5.220;2023-07-20T14:53:02;98280.00;;;30.72;28.72
48874;BME280;66155;46.204;5.220;2023-07-20T14:58:03;98282.31;;;30.63;28.58
48874;BME280;66155;46.204;5.220;2023-07-20T15:03:03;98278.53;;;30.53;28.33
48874;BME280;66155;46.204;5.220;2023-07-20T15:08:05;98285.03;;;30.52;28.29
48874;BME280;66155;46.204;5.220;2023-07-20T15:13:06;98289.91;;;30.82;28.07
48874;BME280;66155;46.204;5.220;2023-07-20T15:18:07;98284.59;;;30.68;27.74
48874;BME280;66155;46.204;5.220;2023-07-20T15:23:08;98294.63;;;30.64;28.14
48874;BME280;66155;46.204;5.220;2023-07-20T15:28:08;98280.34;;;30.78;28.22
48874;BME280;66155;46.204;5.220;2023-07-20T15:33:08;98278.34;;;30.96;27.66
48874;BME280;66155;46.204;5.220;2023-07-20T15:38:09;98268.66;;;31.10;27.31
48874;BME280;66155;46.204;5.220;2023-07-20T15:43:09;98253.88;;;31.32;27.21
48874;BME280;66155;46.204;5.220;2023-07-20T15:48:10;98248.41;;;31.50;26.75
48874;BME280;66155;46.204;5.220;2023-07-20T15:53:11;98262.38;;;31.31;26.71
48874;BME280;66155;46.204;5.220;2023-07-20T15:58:11;98256.56;;;31.32;26.54
48874;BME280;66155;46.204;5.220;2023-07-20T16:03:12;98257.13;;;31.09;27.15
48874;BME280;66155;46.204;5.220;2023-07-20T16:08:13;98249.13;;;30.95;27.31
48874;BME280;66155;46.204;5.220;2023-07-20T16:13:13;98242.41;;;31.24;27.04
48874;BME280;66155;46.204;5.220;2023-07-20T16:18:14;98240.41;;;31.36;26.66
48874;BME280;66155;46.204;5.220;2023-07-20T16:23:14;98242.03;;;31.22;26.26
48874;BME280;66155;46.204;5.220;2023-07-20T16:28:15;98248.19;;;31.23;26.06
48874;BME280;66155;46.204;5.220;2023-07-20T16:33:16;98235.88;;;31.25;26.45
48874;BME280;66155;46.204;5.220;2023-07-20T16:38:16;98224.94;;;31.51;26.63
48874;BME280;66155;46.204;5.220;2023-07-20T16:43:17;98222.28;;;31.85;26.69
48874;BME280;66155;46.204;5.220;2023-07-20T16:48:17;98223.34;;;31.95;26.95
48874;BME280;66155;46.204;5.220;2023-07-20T16:53:18;98215.50;;;32.11;26.82
48874;BME280;66155;46.204;5.220;2023-07-20T16:58:19;98208.09;;;32.19;26.65
48874;BME280;66155;46.204;5.220;2023-07-20T17:03:20;98202.81;;;32.43;26.54
48874;BME280;66155;46.204;5.220;2023-07-20T17:08:20;98198.31;;;32.32;26.68
48874;BME280;66155;46.204;5.220;2023-07-20T17:13:22;98189.31;;;32.43;26.79
48874;BME280;66155;46.204;5.220;2023-07-20T17:18:22;98195.31;;;32.54;26.32
48874;BME280;66155;46.204;5.220;2023-07-20T17:23:22;98187.88;;;32.65;26.32
48874;BME280;66155;46.204;5.220;2023-07-20T17:28:23;98197.94;;;32.88;26.22
48874;BME280;66155;46.204;5.220;2023-07-20T17:33:24;98181.47;;;33.06;25.86
48874;BME280;66155;46.204;5.220;2023-07-20T17:38:24;98186.88;;;33.06;25.54
48874;BME280;66155;46.204;5.220;2023-07-20T17:43:24;98192.56;;;33.15;25.35
48874;BME280;66155;46.204;5.220;2023-07-20T17:48:25;98184.34;;;33.23;25.31
48874;BME280;66155;46.204;5.220;2023-07-20T17:53:25;98179.41;;;33.61;25.24
48874;BME280;66155;46.204;5.220;2023-07-20T17:58:26;98187.34;;;34.12;24.29
48874;BME280;66155;46.204;5.220;2023-07-20T18:03:27;98170.63;;;35.23;23.12
48874;BME280;66155;46.204;5.220;2023-07-20T18:08:27;98165.44;;;36.94;21.71
48874;BME280;66155;46.204;5.220;2023-07-20T18:13:28;98169.50;;;37.59;21.05
48874;BME280;66155;46.204;5.220;2023-07-20T18:18:29;98168.16;;;37.76;21.15
48874;BME280;66155;46.204;5.220;2023-07-20T18:23:30;98168.69;;;37.49;21.09
48874;BME280;66155;46.204;5.220;2023-07-20T18:28:31;98171.63;;;36.17;22.30
48874;BME280;66155;46.204;5.220;2023-07-20T18:33:32;98163.84;;;34.65;23.63
48874;BME280;66155;46.204;5.220;2023-07-20T18:38:33;98177.22;;;33.56;24.57
48874;BME280;66155;46.204;5.220;2023-07-20T18:43:33;98173.88;;;32.74;25.08
48874;BME280;66155;46.204;5.220;2023-07-20T18:48:34;98173.69;;;32.30;25.81
48874;BME280;66155;46.204;5.220;2023-07-20T18:53:34;98178.38;;;31.88;26.22
48874;BME280;66155;46.204;5.220;2023-07-20T18:58:35;98168.47;;;31.40;26.81
48874;BME280;66155;46.204;5.220;2023-07-20T19:03:36;98174.56;;;30.99;27.49
48874;BME280;66155;46.204;5.220;2023-07-20T19:08:37;98174.78;;;30.59;28.06
48874;BME280;66155;46.204;5.220;2023-07-20T19:13:37;98186.84;;;30.29;28.67
48874;BME280;66155;46.204;5.220;2023-07-20T19:18:38;98188.44;;;30.09;28.94
48874;BME280;66155;46.204;5.220;2023-07-20T19:23:39;98188.13;;;29.89;29.41
48874;BME280;66155;46.204;5.220;2023-07-20T19:28:40;98177.03;;;29.36;30.30
48874;BME280;66155;46.204;5.220;2023-07-20T19:33:40;98191.19;;;28.90;30.44
48874;BME280;66155;46.204;5.220;2023-07-20T19:38:41;98188.00;;;28.45;31.36
48874;BME280;66155;46.204;5.220;2023-07-20T19:43:41;98194.00;;;28.13;31.71
48874;BME280;66155;46.204;5.220;2023-07-20T19:48:44;98194.94;;;27.83;32.21
48874;BME280;66155;46.204;5.220;2023-07-20T19:53:45;98203.66;;;27.69;32.32
48874;BME280;66155;46.204;5.220;2023-07-20T19:58:47;98212.38;;;27.56;32.72
48874;BME280;66155;46.204;5.220;2023-07-20T20:03:48;98235.13;;;27.35;33.53
48874;BME280;66155;46.204;5.220;2023-07-20T20:08:48;98237.59;;;27.13;33.44
48874;BME280;66155;46.204;5.220;2023-07-20T20:13:51;98230.47;;;26.91;34.01
48874;BME280;66155;46.204;5.220;2023-07-20T20:18:51;98241.34;;;26.71;34.69
48874;BME280;66155;46.204;5.220;2023-07-20T20:23:52;98257.16;;;26.53;35.08
48874;BME280;66155;46.204;5.220;2023-07-20T20:28:52;98255.06;;;26.40;35.34
48874;BME280;66155;46.204;5.220;2023-07-20T20:33:53;98261.72;;;26.23;35.77
48874;BME280;66155;46.204;5.220;2023-07-20T20:38:54;98262.84;;;26.22;35.81
48874;BME280;66155;46.204;5.220;2023-07-20T20:43:55;98256.25;;;26.12;36.14
48874;BME280;66155;46.204;5.220;2023-07-20T20:48:56;98253.78;;;25.99;36.63
48874;BME280;66155;46.204;5.220;2023-07-20T20:53:56;98250.00;;;26.04;36.25
48874;BME280;66155;46.204;5.220;2023-07-20T20:58:57;98245.66;;;26.19;36.23
48874;BME280;66155;46.204;5.220;2023-07-20T21:03:57;98259.09;;;26.26;36.34
48874;BME280;66155;46.204;5.220;2023-07-20T21:08:58;98260.25;;;26.29;36.23
48874;BME280;66155;46.204;5.220;2023-07-20T21:13:58;98249.13;;;26.23;36.49
48874;BME280;66155;46.204;5.220;2023-07-20T21:18:59;98245.75;;;26.26;36.87
48874;BME280;66155;46.204;5.220;2023-07-20T21:23:59;98236.13;;;26.22;36.87
48874;BME280;66155;46.204;5.220;2023-07-20T21:29:00;98255.94;;;26.17;36.99
48874;BME280;66155;46.204;5.220;2023-07-20T21:34:00;98255.03;;;26.09;37.46
48874;BME280;66155;46.204;5.220;2023-07-20T21:39:00;98243.09;;;25.99;37.84
48874;BME280;66155;46.204;5.220;2023-07-20T21:44:02;98224.41;;;25.99;37.88
48874;BME280;66155;46.204;5.220;2023-07-20T21:49:03;98226.25;;;25.95;38.08
48874;BME280;66155;46.204;5.220;2023-07-20T21:54:03;98217.16;;;26.00;38.09
48874;BME280;66155;46.204;5.220;2023-07-20T21:59:05;98203.13;;;25.80;38.82
48874;BME280;66155;46.204;5.220;2023-07-20T22:04:05;98203.00;;;25.69;39.28
48874;BME280;66155;46.204;5.220;2023-07-20T22:09:08;98209.28;;;25.34;39.92
48874;BME280;66155;46.204;5.220;2023-07-20T22:14:09;98208.94;;;24.93;40.81
48874;BME280;66155;46.204;5.220;2023-07-20T22:19:09;98205.09;;;24.52;41.61
48874;BME280;66155;46.204;5.220;2023-07-20T22:24:10;98210.34;;;24.28;42.20
48874;BME280;66155;46.204;5.220;2023-07-20T22:29:11;98210.06;;;23.98;43.23
48874;BME280;66155;46.204;5.220;2023-07-20T22:34:12;98207.34;;;23.63;43.42
48874;BME280;66155;46.204;5.220;2023-07-20T22:39:13;98217.06;;;23.55;43.53
48874;BME280;66155;46.204;5.220;2023-07-20T22:44:14;98225.13;;;23.43;43.83
48874;BME280;66155;46.204;5.220;2023-07-20T22:49:16;98218.63;;;23.40;43.69
48874;BME280;66155;46.204;5.220;2023-07-20T22:54:16;98216.97;;;23.35;43.94
48874;BME280;66155;46.204;5.220;2023-07-20T22:59:16;98212.16;;;23.25;44.17
48874;BME280;66155;46.204;5.220;2023-07-20T23:04:17;98206.81;;;23.09;44.39
48874;BME280;66155;46.204;5.220;2023-07-20T23:09:18;98202.00;;;22.99;44.39
48874;BME280;66155;46.204;5.220;2023-07-20T23:14:18;98199.78;;;23.01;44.72
48874;BME280;66155;46.204;5.220;2023-07-20T23:19:19;98198.53;;;23.11;44.39
48874;BME280;66155;46.204;5.220;2023-07-20T23:24:20;98192.28;;;23.19;44.66
48874;BME280;66155;46.204;5.220;2023-07-20T23:29:20;98181.81;;;23.26;44.62
48874;BME280;66155;46.204;5.220;2023-07-20T23:34:21;98183.09;;;23.32;44.35
48874;BME280;66155;46.204;5.220;2023-07-20T23:39:21;98188.50;;;23.36;44.82
48874;BME280;66155;46.204;5.220;2023-07-20T23:44:23;98180.28;;;23.25;45.06
48874;BME280;66155;46.204;5.220;2023-07-20T23:49:23;98179.66;;;23.16;45.64
48874;BME280;66155;46.204;5.220;2023-07-20T23:54:24;98165.34;;;23.05;45.86
48874;BME280;66155;46.204;5.220;2023-07-20T23:59:25;98160.25;;;23.00;46.27
